Weather observations for the past three days for
Renton Municipal Airport
Imperial (Metric)
Date Time (pdt) Wind (mph) Vis. (mi.) Weather Sky Cond. Temperature (ºF) Relative Humidity Wind Chill (°F) Heat Index (°F) Pressure Precipitation (in)
Air Dwpt 6 hour altimeter (in) sea level (mb) 1 hr 3 hr 6 hr
Max. Min.
04 16:53 Vrbl 5 10.00 Fair CLR 79 46 81 71.1 31% 79 29.8 1009.5
04 15:53 W 5 8.00 Fair CLR 79 43 28% 78 29.81 1009.8
04 14:53 Vrbl 5 10.00 Fair CLR 78.1 44.1 30% 78 29.82 1010.4
04 13:53 W 6 10.00 Fair CLR 77 46.9 35% 78 29.83 1010.7
04 12:53 S 9 10.00 Fair CLR 75.9 46.9 36% 78 29.84 1010.9
04 11:53 SW 8 10.00 Fair CLR 73.9 46.9 38% 29.85 1011.1
04 10:53 S 7 10.00 Fair CLR 72 48 72 53.1 43% 29.85 1011.4
04 09:53 S 5 10.00 Fair CLR 69.1 48.9 49% 29.85 1011.3
04 08:53 S 7 10.00 Fair CLR 64 48 56% 29.85 1011.2
04 07:53 S 3 10.00 Fair CLR 59 48.9 69% 29.84 1010.8
04 06:53 SE 5 10.00 Fair CLR 55 48 77% 29.83 1010.6
04 05:53 S 3 10.00 Fair CLR 53.1 48 83% 29.81 1010.0
04 04:53 SE 3 10.00 Fair CLR 54 48.9 64 54 83% 29.81 1009.9
04 03:53 Calm 10.00 Fair CLR 55 50 83% 29.81 1010.0
04 02:53 S 3 10.00 Fair CLR 57 50 78% 29.8 1009.7
04 01:53 Calm 10.00 Fair CLR 59 52 78% 29.8 1009.6
04 00:53 Calm 10.00 Fair CLR 61 51.1 70% 29.8 1009.7
03 23:53 Calm 10.00 Fair CLR 62.1 50 65% 29.8 1009.6
03 22:53 N 3 10.00 Fair CLR 62.1 54 80.1 62.1 75% 29.8 1009.5
03 21:53 Calm 10.00 Fair CLR 66.9 51.1 57% 29.8 1009.5
03 20:53 N 7 10.00 Fair CLR 69.1 52 55% 29.79 1009.2
03 19:53 N 7 10.00 Fair CLR 71.1 51.1 49% 29.78 1008.9
03 18:53 NW 12 10.00 Fair CLR 75.9 48.9 39% 78 29.78 1009.0
03 17:53 NW 10 10.00 Fair CLR 79 50 36% 79 29.79 1009.3
03 16:53 NW 13 10.00 Fair CLR 79 51.1 80.1 69.1 38% 79 29.81 1009.9
03 15:53 NW 14 10.00 Fair CLR 79 52 39% 79 29.83 1010.6
03 14:53 NW 13 10.00 Fair CLR 79 51.1 38% 79 29.85 1011.1
03 13:53 NW 13 10.00 Fair CLR 77 50 39% 78 29.87 1011.8
03 12:53 NW 12 10.00 Fair CLR 75.9 51.1 42% 78 29.89 1012.6
03 11:53 NW 10 10.00 Fair CLR 73 52 48% 29.91 1013.4
03 10:53 NW 8 10.00 Fair CLR 70 52 70 52 53% 29.92 1013.8
03 09:53 NW 6 10.00 Fair CLR 66 52 61% 29.94 1014.2
03 08:53 N 6 10.00 Fair CLR 61 52 72% 29.95 1014.6
03 07:53 N 5 10.00 Fair CLR 57.9 51.1 78% 29.95 1014.6
03 06:53 Calm 10.00 Fair CLR 54 50 87% 29.94 1014.4
03 05:53 Calm 10.00 Fair CLR 53.1 48.9 86% 29.94 1014.4
03 04:53 Calm 10.00 Fair CLR 53.1 50 64 53.1 89% 29.95 1014.5
03 03:53 Calm 10.00 Fair CLR 55 50 83% 29.95 1014.6
03 02:53 Calm 10.00 Fair CLR 55.9 48.9 77% 29.95 1014.6
03 01:53 Calm 10.00 Fair CLR 57 48.9 74% 29.96 1014.9
03 00:53 Calm 10.00 Fair CLR 60.1 48 65% 29.95 1014.6
02 23:53 N 3 10.00 Fair CLR 61 50 67% 29.94 1014.5
02 22:53 N 5 10.00 Fair CLR 64 48 73.9 63 56% 29.94 1014.3
02 21:53 NW 7 10.00 Fair CLR 64 48.9 58% 29.94 1014.2
02 20:53 N 7 10.00 Fair CLR 64 52 65% 29.92 1013.6
02 19:53 NW 13 10.00 Fair CLR 70 50 49% 29.9 1012.8
02 18:53 NW 14 10.00 Fair CLR 72 52 50% 29.89 1012.7
02 17:53 NW 13 10.00 Fair CLR 73 51.1 46% 29.9 1012.8
02 16:53 NW 14 10.00 Fair CLR 73 52 73.9 61 48% 29.91 1013.2
02 15:53 NW 14 10.00 Fair CLR 73 51.1 46% 29.93 1013.9
02 14:53 NW 15 10.00 Fair CLR 71.1 54 55% 29.95 1014.7
02 13:53 NW 14 10.00 Fair CLR 69.1 52 55% 29.97 1015.3
02 12:53 NW 14 10.00 Fair CLR 66.9 53.1 61% 29.99 1015.9
02 11:53 NW 12 10.00 Fair CLR 64 52 65% 30.01 1016.5
02 10:53 NW 10 10.00 Fair CLR 61 52 61 52 72% 30.02 1017.0
02 09:53 N 9 10.00 Fair CLR 59 51.1 75% 30.02 1017.1
02 08:53 NW 5 10.00 Fair CLR 55.9 50 81% 30.03 1017.5
02 07:53 NW 6 10.00 Fair CLR 54 50 87% 30.02 1017.2
02 06:53 NW 5 10.00 Fair CLR 53.1 48.9 86% 30.02 1017.0
02 05:53 S 5 10.00 Partly Cloudy FEW065 SCT085 53.1 48.9 86% 30.03 1017.3
02 04:53 S 5 10.00 Mostly Cloudy BKN120 53.1 48.9 61 53.1 86% 30.03 1017.5
02 03:53 S 9 10.00 Fair CLR 54 48.9 83% 30.05 1017.9
02 02:53 NW 3 10.00 Fair CLR 55 46.9 74% 30.01 1016.8
02 01:53 SW 3 10.00 A Few Clouds FEW110 57.9 46 65% 30.02 1017.1
02 00:53 Calm 10.00 Fair CLR 57.9 44.1 60% 30.01 1016.8
01 23:53 NW 5 10.00 Partly Cloudy SCT120 60.1 44.1 56% 30.01 1016.5
01 22:53 N 3 10.00 Mostly Cloudy BKN120 60.1 51.1 70 60.1 72% 30 1016.3
01 21:53 N 5 10.00 Partly Cloudy SCT120 61 52 72% 29.98 1015.8
01 20:53 NW 7 10.00 Partly Cloudy FEW055 FEW080 SCT100 62.1 51.1 67% 29.97 1015.5
01 19:53 NW 8 10.00 Mostly Cloudy BKN110 64.9 48 54% 29.95 1014.7
01 18:53 N 9 10.00 Mostly Cloudy BKN120 66.9 48.9 53% 29.94 1014.4
01 17:53 N 6 10.00 Mostly Cloudy BKN120 66.9 50 55% 29.95 1014.6
Date Time (pdt) Wind (mph) Vis. (mi.) Weather Sky Cond. Air Dwpt Max. Min. Relative Humidity Wind Chill (°F) Heat Index (°F) altimeter (in) sea level (mb) 1 hr 3 hr 6 hr
6 hour
Temperature (ºF) Pressure Precipitation (in)